Time;durP1;ratioP1;P1;durP2;ratioP2;P2;SDS_P1;SDS_P2;PMS_P1;PMS_P2;Temp;Humidity;BMP_temperature;BMP_pressure;BME280_temperature;BME280_humidity;BME280_pressure;Samples;Min_cycle;Max_cycle;Signal;HPM_P1;HPM_P2
2022/08/15 00:01:06;;;;;;;;;9.00;9.00;;;;;;;;5119815;27;45326;-77
2022/08/15 00:03:33;;;;;;;;;10.00;8.67;;;;;;;;5119604;27;45389;-77
2022/08/15 00:06:01;;;;;;;;;8.67;8.00;;;;;;;;5119465;27;45429;-77
2022/08/15 00:08:28;;;;;;;;;8.67;8.00;;;;;;;;5119400;27;45291;-77
2022/08/15 00:11:05;;;;;;;;;9.00;9.00;;;;;;;;5119470;27;45330;-77
2022/08/15 00:13:31;;;;;;;;;9.33;9.33;;;;;;;;5119209;27;45328;-77
2022/08/15 00:15:56;;;;;;;;;7.67;6.00;;;;;;;;5119384;27;45525;-76
2022/08/15 00:18:23;;;;;;;;;9.33;9.00;;;;;;;;5119387;27;45267;-77
2022/08/15 00:20:48;;;;;;;;;9.00;9.00;;;;;;;;5119842;27;45422;-78
2022/08/15 00:23:17;;;;;;;;;9.67;9.67;;;;;;;;5119086;27;46818;-77
2022/08/15 00:25:45;;;;;;;;;10.00;8.00;;;;;;;;5119022;27;45421;-76
2022/08/15 00:28:10;;;;;;;;;10.67;8.00;;;;;;;;5119233;27;45410;-76
2022/08/15 00:30:36;;;;;;;;;11.67;9.67;;;;;;;;5119372;27;45283;-77
2022/08/15 00:33:02;;;;;;;;;10.00;9.00;;;;;;;;5119046;27;47558;-76
2022/08/15 00:35:36;;;;;;;;;13.00;8.67;;;;;;;;5119103;27;45170;-76
2022/08/15 00:38:14;;;;;;;;;13.67;10.67;;;;;;;;5118900;27;45460;-76
2022/08/15 00:43:25;;;;;;;;;10.33;10.33;;;;;;;;5118788;27;45395;-77
2022/08/15 00:45:51;;;;;;;;;8.00;8.00;;;;;;;;5118797;27;45254;-76
2022/08/15 00:51:02;;;;;;;;;9.33;7.33;;;;;;;;5118982;27;45257;-77
2022/08/15 00:53:28;;;;;;;;;10.00;10.00;;;;;;;;5118781;27;45519;-77
2022/08/15 00:55:53;;;;;;;;;9.33;8.67;;;;;;;;5118657;27;45271;-77
2022/08/15 00:58:19;;;;;;;;;9.33;9.33;;;;;;;;5118651;27;45334;-76
2022/08/15 01:00:46;;;;;;;;;10.33;9.67;;;;;;;;5119053;27;45359;-76
2022/08/15 01:03:33;;;;;;;;;8.00;8.00;;;;;;;;5118988;27;46601;-77
2022/08/15 01:05:59;;;;;;;;;10.00;8.00;;;;;;;;5122087;27;45457;-77
2022/08/15 01:08:30;;;;;;;;;9.33;9.33;;;;;;;;5122133;27;45194;-76
2022/08/15 01:10:56;;;;;;;;;12.67;9.33;;;;;;;;5122533;27;45678;-77
2022/08/15 01:13:22;;;;;;;;;11.00;10.00;;;;;;;;5121932;27;46162;-78
2022/08/15 01:15:47;;;;;;;;;11.33;11.00;;;;;;;;5122120;27;45334;-77
2022/08/15 01:18:12;;;;;;;;;12.00;11.00;;;;;;;;5122186;27;45141;-78
2022/08/15 01:20:40;;;;;;;;;10.33;10.33;;;;;;;;5122436;27;45544;-75
2022/08/15 01:23:11;;;;;;;;;11.33;8.33;;;;;;;;5122032;27;46501;-77
2022/08/15 01:25:46;;;;;;;;;9.00;8.00;;;;;;;;5121938;27;45483;-77
2022/08/15 01:28:13;;;;;;;;;11.00;11.00;;;;;;;;5103474;27;45798;-77
2022/08/15 01:30:43;;;;;;;;;11.00;9.67;;;;;;;;5122197;27;45444;-75
2022/08/15 01:33:08;;;;;;;;;9.33;9.00;;;;;;;;5121742;27;46390;-77
2022/08/15 01:35:34;;;;;;;;;9.67;9.67;;;;;;;;5122009;27;45416;-77
2022/08/15 01:38:00;;;;;;;;;13.33;12.33;;;;;;;;5121762;27;45413;-76
2022/08/15 01:40:25;;;;;;;;;12.00;11.00;;;;;;;;5121848;27;45445;-77
2022/08/15 01:42:51;;;;;;;;;8.00;8.00;;;;;;;;5121755;27;45291;-77
2022/08/15 01:45:19;;;;;;;;;11.00;11.00;;;;;;;;5121656;27;45314;-77
2022/08/15 01:48:06;;;;;;;;;7.33;7.33;;;;;;;;5121879;27;45287;-76
2022/08/15 01:50:34;;;;;;;;;8.33;8.33;;;;;;;;5122066;27;45411;-76
2022/08/15 01:53:05;;;;;;;;;11.00;8.00;;;;;;;;5121480;27;46548;-77
2022/08/15 01:55:36;;;;;;;;;10.00;7.67;;;;;;;;5121496;27;45470;-76
2022/08/15 01:58:04;;;;;;;;;14.33;10.67;;;;;;;;5121665;27;45375;-77
2022/08/15 02:00:29;;;;;;;;;13.00;10.33;;;;;;;;5121523;27;45161;-77
2022/08/15 02:02:54;;;;;;;;;10.33;8.67;;;;;;;;5121308;27;47198;-77
2022/08/15 02:05:20;;;;;;;;;9.67;9.67;;;;;;;;5121266;27;45341;-77
2022/08/15 02:07:45;;;;;;;;;14.00;11.00;;;;;;;;5121069;27;45350;-78
2022/08/15 02:10:11;;;;;;;;;9.67;9.67;;;;;;;;5121758;27;45362;-75
2022/08/15 02:12:37;;;;;;;;;16.33;10.00;;;;;;;;5120943;27;46499;-77
2022/08/15 02:15:06;;;;;;;;;13.33;11.00;;;;;;;;5120724;27;45330;-76
2022/08/15 02:17:31;;;;;;;;;10.33;8.00;;;;;;;;5121621;27;45382;-77
2022/08/15 02:19:57;;;;;;;;;11.00;9.33;;;;;;;;5121524;27;45421;-77
2022/08/15 02:22:23;;;;;;;;;9.67;9.67;;;;;;;;5121051;27;46332;-77
2022/08/15 02:24:48;;;;;;;;;12.00;11.00;;;;;;;;5121337;27;45495;-76
2022/08/15 02:27:14;;;;;;;;;10.67;10.67;;;;;;;;5121121;27;45256;-78
2022/08/15 02:29:40;;;;;;;;;11.67;10.00;;;;;;;;5121288;27;45389;-77
2022/08/15 02:32:10;;;;;;;;;11.00;9.33;;;;;;;;5120897;27;45342;-76
2022/08/15 02:34:35;;;;;;;;;11.00;9.00;;;;;;;;5120303;27;45346;-77
2022/08/15 02:37:02;;;;;;;;;13.67;11.00;;;;;;;;5121068;27;45425;-77
2022/08/15 02:39:27;;;;;;;;;11.67;11.00;;;;;;;;5121217;27;45408;-77
2022/08/15 02:41:52;;;;;;;;;11.00;8.33;;;;;;;;5120542;27;46058;-77
2022/08/15 02:44:21;;;;;;;;;13.67;9.67;;;;;;;;5120794;27;45347;-77
2022/08/15 02:46:48;;;;;;;;;8.67;8.67;;;;;;;;5120970;27;45319;-77
2022/08/15 02:49:13;;;;;;;;;10.67;9.00;;;;;;;;5120882;27;45393;-77
2022/08/15 02:51:39;;;;;;;;;8.00;8.00;;;;;;;;5120542;27;46586;-77
2022/08/15 02:54:05;;;;;;;;;13.00;11.67;;;;;;;;5102114;27;45598;-76
2022/08/15 02:56:31;;;;;;;;;9.67;9.67;;;;;;;;5120713;27;45276;-75
2022/08/15 02:58:57;;;;;;;;;9.00;9.00;;;;;;;;5120742;27;45424;-76
2022/08/15 03:01:23;;;;;;;;;9.00;9.00;;;;;;;;5120433;27;45970;-76
2022/08/15 03:03:49;;;;;;;;;9.33;9.33;;;;;;;;5120464;27;45374;-76
2022/08/15 03:06:16;;;;;;;;;9.67;6.00;;;;;;;;5120509;27;45383;-76
2022/08/15 03:08:41;;;;;;;;;11.00;8.67;;;;;;;;5120336;27;45216;-76
2022/08/15 03:11:08;;;;;;;;;12.67;11.67;;;;;;;;5120211;27;46067;-77
2022/08/15 03:13:34;;;;;;;;;12.00;10.33;;;;;;;;5120179;27;45362;-77
2022/08/15 03:16:00;;;;;;;;;11.67;10.67;;;;;;;;5120286;27;45238;-76
2022/08/15 03:18:28;;;;;;;;;8.67;8.67;;;;;;;;5120600;27;45405;-77
2022/08/15 03:20:54;;;;;;;;;15.67;12.33;;;;;;;;5119925;27;47041;-77
2022/08/15 03:23:20;;;;;;;;;12.33;11.00;;;;;;;;5120086;27;45299;-77
2022/08/15 03:25:48;;;;;;;;;9.67;9.00;;;;;;;;5119590;27;45402;-77
2022/08/15 03:28:13;;;;;;;;;12.33;10.67;;;;;;;;5119885;27;45489;-77
2022/08/15 03:30:39;;;;;;;;;13.67;13.67;;;;;;;;5120057;27;45416;-77
2022/08/15 03:33:05;;;;;;;;;10.33;10.00;;;;;;;;5119984;27;45236;-77
2022/08/15 03:35:32;;;;;;;;;11.00;11.00;;;;;;;;5120033;27;46009;-77
2022/08/15 03:37:58;;;;;;;;;11.00;9.00;;;;;;;;5120160;27;45491;-77
2022/08/15 03:40:23;;;;;;;;;12.33;11.00;;;;;;;;5119720;27;47628;-77
2022/08/15 03:42:57;;;;;;;;;13.67;10.33;;;;;;;;5119633;27;45323;-77
2022/08/15 03:45:22;;;;;;;;;11.67;10.67;;;;;;;;5120186;27;45359;-77
2022/08/15 03:47:48;;;;;;;;;9.67;9.67;;;;;;;;5119965;27;45424;-77
2022/08/15 03:50:14;;;;;;;;;14.67;13.00;;;;;;;;5119625;27;45570;-77
2022/08/15 03:52:51;;;;;;;;;12.00;11.00;;;;;;;;5119930;27;45837;-77
2022/08/15 03:55:17;;;;;;;;;11.00;10.67;;;;;;;;5119823;27;45211;-77
2022/08/15 03:57:44;;;;;;;;;12.33;11.00;;;;;;;;5119894;27;45346;-76
2022/08/15 04:00:11;;;;;;;;;16.33;11.67;;;;;;;;5119618;27;45398;-76
2022/08/15 04:02:36;;;;;;;;;15.00;13.00;;;;;;;;5119440;27;45378;-77
2022/08/15 04:05:01;;;;;;;;;14.33;12.67;;;;;;;;5119484;27;45424;-77
2022/08/15 04:07:26;;;;;;;;;15.33;13.00;;;;;;;;5119571;27;45428;-77
2022/08/15 04:09:52;;;;;;;;;12.00;12.00;;;;;;;;5119419;27;46114;-77
2022/08/15 04:12:37;;;;;;;;;13.33;11.67;;;;;;;;5119236;27;45437;-77
2022/08/15 04:15:03;;;;;;;;;18.33;14.00;;;;;;;;5119578;27;45344;-77
2022/08/15 04:17:28;;;;;;;;;12.33;12.33;;;;;;;;5119557;27;45296;-77
2022/08/15 04:19:53;;;;;;;;;18.67;12.67;;;;;;;;5119213;27;47358;-77
2022/08/15 04:22:27;;;;;;;;;12.00;12.00;;;;;;;;5119339;27;45213;-77
2022/08/15 04:24:52;;;;;;;;;13.00;9.00;;;;;;;;5119252;27;45369;-77
2022/08/15 04:27:17;;;;;;;;;11.67;10.67;;;;;;;;5119336;27;45414;-77
2022/08/15 04:29:42;;;;;;;;;13.33;11.67;;;;;;;;5119237;27;47176;-77
2022/08/15 04:32:11;;;;;;;;;9.00;8.33;;;;;;;;5119175;27;45379;-77
2022/08/15 04:34:38;;;;;;;;;12.00;9.33;;;;;;;;5119340;27;45215;-77
2022/08/15 04:37:03;;;;;;;;;10.67;9.00;;;;;;;;5118982;27;45374;-77
2022/08/15 04:39:28;;;;;;;;;13.33;10.33;;;;;;;;5118944;27;46169;-77
2022/08/15 04:41:55;;;;;;;;;16.33;11.67;;;;;;;;5118947;27;45265;-77
2022/08/15 04:44:20;;;;;;;;;13.00;11.33;;;;;;;;5118889;27;45478;-77
2022/08/15 04:46:46;;;;;;;;;13.67;11.67;;;;;;;;5119202;27;45295;-77
2022/08/15 04:49:11;;;;;;;;;10.67;9.67;;;;;;;;5118666;27;45431;-77
2022/08/15 04:51:37;;;;;;;;;10.67;10.67;;;;;;;;5118957;27;45334;-77
2022/08/15 04:54:03;;;;;;;;;10.67;10.67;;;;;;;;5119044;27;45289;-77
2022/08/15 04:56:28;;;;;;;;;12.33;10.67;;;;;;;;5119283;27;45211;-77
2022/08/15 04:58:53;;;;;;;;;11.00;11.00;;;;;;;;5118732;27;45719;-77
2022/08/15 05:01:19;;;;;;;;;12.67;10.00;;;;;;;;5118592;27;45442;-77
2022/08/15 05:03:44;;;;;;;;;11.00;11.00;;;;;;;;5118851;27;45200;-76
2022/08/15 05:06:10;;;;;;;;;11.33;11.33;;;;;;;;5118917;27;45220;-77
2022/08/15 05:08:36;;;;;;;;;11.00;10.00;;;;;;;;5118212;27;47306;-77
2022/08/15 05:11:04;;;;;;;;;10.00;8.67;;;;;;;;5118663;27;45384;-77
2022/08/15 05:13:30;;;;;;;;;14.67;10.67;;;;;;;;5118589;27;45389;-77
2022/08/15 05:15:57;;;;;;;;;13.67;13.00;;;;;;;;5118946;27;45290;-77
2022/08/15 05:18:22;;;;;;;;;12.00;10.00;;;;;;;;5118299;27;46769;-78
2022/08/15 05:20:48;;;;;;;;;10.33;10.33;;;;;;;;5118311;27;45463;-77
2022/08/15 05:23:14;;;;;;;;;14.00;13.67;;;;;;;;5118537;27;45723;-77
2022/08/15 05:25:41;;;;;;;;;9.67;8.67;;;;;;;;5100127;27;45217;-77
2022/08/15 05:28:07;;;;;;;;;9.67;9.67;;;;;;;;5117733;27;46243;-77
2022/08/15 05:30:32;;;;;;;;;13.00;10.67;;;;;;;;5118261;27;45335;-76
2022/08/15 05:33:00;;;;;;;;;11.67;11.67;;;;;;;;5118457;27;45656;-77
2022/08/15 05:35:26;;;;;;;;;13.67;12.67;;;;;;;;5118580;27;45476;-77
2022/08/15 05:37:51;;;;;;;;;11.00;11.00;;;;;;;;5117984;27;46035;-77
2022/08/15 05:40:17;;;;;;;;;11.00;10.00;;;;;;;;5118232;27;45679;-77
2022/08/15 05:42:50;;;;;;;;;12.00;10.00;;;;;;;;5118179;27;45382;-78
2022/08/15 05:45:39;;;;;;;;;12.67;10.00;;;;;;;;5118385;27;45305;-76
2022/08/15 05:48:14;;;;;;;;;12.33;11.00;;;;;;;;5117681;27;46640;-76
2022/08/15 05:51:00;;;;;;;;;24.00;19.33;;;;;;;;5120361;27;45375;-76
2022/08/15 05:53:44;;;;;;;;;13.33;11.00;;;;;;;;5121414;27;45317;-76
2022/08/15 05:56:38;;;;;;;;;13.00;9.00;;;;;;;;5122023;27;45604;-77
2022/08/15 05:59:09;;;;;;;;;11.00;10.67;;;;;;;;5121391;27;46558;-77
2022/08/15 06:01:37;;;;;;;;;12.67;10.33;;;;;;;;5121153;27;45298;-77
2022/08/15 06:04:13;;;;;;;;;15.00;13.33;;;;;;;;5121585;27;45508;-77
2022/08/15 06:06:41;;;;;;;;;12.67;10.67;;;;;;;;5121408;27;45477;-77
2022/08/15 06:09:18;;;;;;;;;10.67;10.67;;;;;;;;5121094;27;47347;-77
2022/08/15 06:11:46;;;;;;;;;13.00;13.00;;;;;;;;5121261;27;45352;-77
2022/08/15 06:14:12;;;;;;;;;13.00;10.33;;;;;;;;5121026;27;45349;-76
2022/08/15 06:16:44;;;;;;;;;15.33;13.00;;;;;;;;5121456;27;45416;-77
2022/08/15 06:19:28;;;;;;;;;12.00;10.67;;;;;;;;5102641;27;48251;-77
2022/08/15 06:21:57;;;;;;;;;14.00;10.67;;;;;;;;5121136;27;45481;-77
2022/08/15 06:24:22;;;;;;;;;10.33;10.33;;;;;;;;5121088;27;45279;-77
2022/08/15 06:26:47;;;;;;;;;11.00;11.00;;;;;;;;5121308;27;45520;-77
2022/08/15 06:29:31;;;;;;;;;12.33;10.33;;;;;;;;5120895;27;46479;-77
2022/08/15 06:32:01;;;;;;;;;11.00;11.00;;;;;;;;5121135;27;45264;-77
2022/08/15 06:34:38;;;;;;;;;11.33;10.67;;;;;;;;5121262;27;45289;-77
2022/08/15 06:37:22;;;;;;;;;14.00;11.00;;;;;;;;5121328;27;45339;-77
2022/08/15 06:39:50;;;;;;;;;10.67;10.00;;;;;;;;5121014;27;46565;-76
2022/08/15 06:42:22;;;;;;;;;12.33;11.33;;;;;;;;5120849;27;45505;-77
2022/08/15 06:44:49;;;;;;;;;10.67;10.33;;;;;;;;5120878;27;45226;-77
2022/08/15 06:47:16;;;;;;;;;10.33;10.00;;;;;;;;5121091;27;45336;-77
2022/08/15 06:49:45;;;;;;;;;11.67;10.00;;;;;;;;5120648;27;45523;-77
2022/08/15 06:52:13;;;;;;;;;12.67;12.00;;;;;;;;5120794;27;45449;-77
2022/08/15 06:54:38;;;;;;;;;13.00;10.00;;;;;;;;5120897;27;45325;-78
2022/08/15 06:57:16;;;;;;;;;15.00;11.33;;;;;;;;5120924;27;45286;-77
2022/08/15 06:59:47;;;;;;;;;11.67;10.00;;;;;;;;5120485;27;46547;-77
2022/08/15 07:02:21;;;;;;;;;13.33;13.33;;;;;;;;5120638;27;45303;-77
2022/08/15 07:04:46;;;;;;;;;12.00;11.00;;;;;;;;5120621;27;45248;-76
2022/08/15 07:07:27;;;;;;;;;14.00;10.33;;;;;;;;5101950;27;45183;-78
2022/08/15 07:09:52;;;;;;;;;14.00;12.67;;;;;;;;5101856;27;46556;-77
2022/08/15 07:12:17;;;;;;;;;10.00;10.00;;;;;;;;5120329;27;45366;-78
2022/08/15 07:14:55;;;;;;;;;14.33;12.33;;;;;;;;5120356;27;45412;-77
2022/08/15 07:17:25;;;;;;;;;13.33;11.67;;;;;;;;5120827;27;45293;-77
2022/08/15 07:19:51;;;;;;;;;11.00;11.00;;;;;;;;5120071;27;45936;-77
2022/08/15 07:22:16;;;;;;;;;11.00;10.00;;;;;;;;5120114;27;45256;-76
2022/08/15 07:24:52;;;;;;;;;12.00;11.33;;;;;;;;5120375;27;45299;-77
2022/08/15 07:27:24;;;;;;;;;11.33;9.00;;;;;;;;5120403;27;45544;-76
2022/08/15 07:29:56;;;;;;;;;12.00;12.00;;;;;;;;5119524;27;46680;-77
2022/08/15 07:32:24;;;;;;;;;13.67;13.00;;;;;;;;5119976;27;45914;-77
2022/08/15 07:34:52;;;;;;;;;16.67;11.33;;;;;;;;5120096;27;45318;-77
2022/08/15 07:37:20;;;;;;;;;15.00;12.33;;;;;;;;5120093;27;45706;-77
2022/08/15 07:39:45;;;;;;;;;14.33;12.33;;;;;;;;5119734;27;46555;-76
2022/08/15 07:42:10;;;;;;;;;13.33;13.33;;;;;;;;5119725;27;45355;-77
2022/08/15 07:44:35;;;;;;;;;14.33;12.67;;;;;;;;5119833;27;45485;-77
2022/08/15 07:47:09;;;;;;;;;11.00;10.50;;;;;;;;5120317;27;45161;-77
2022/08/15 07:49:36;;;;;;;;;14.67;11.67;;;;;;;;5119505;27;45544;-77
2022/08/15 07:52:13;;;;;;;;;12.67;12.00;;;;;;;;5119693;27;45430;-77
2022/08/15 07:54:41;;;;;;;;;11.00;9.33;;;;;;;;5119852;27;45350;-77
2022/08/15 07:57:17;;;;;;;;;12.67;12.67;;;;;;;;5120054;27;45417;-77
2022/08/15 08:00:00;;;;;;;;;11.00;11.00;;;;;;;;5119394;27;46277;-76
2022/08/15 08:02:29;;;;;;;;;11.00;9.33;;;;;;;;5119326;27;46242;-76
2022/08/15 08:04:54;;;;;;;;;13.00;13.00;;;;;;;;5119781;27;45275;-76
2022/08/15 08:07:23;;;;;;;;;13.33;10.33;;;;;;;;5119500;27;45459;-77
2022/08/15 08:09:48;;;;;;;;;12.33;12.00;;;;;;;;5119316;27;47305;-76
2022/08/15 08:12:23;;;;;;;;;12.00;12.00;;;;;;;;5118991;27;45472;-78
2022/08/15 08:15:07;;;;;;;;;16.33;14.00;;;;;;;;5119290;27;45350;-76
2022/08/15 08:17:32;;;;;;;;;10.67;10.67;;;;;;;;5119607;27;45390;-77
2022/08/15 08:20:16;;;;;;;;;16.33;13.00;;;;;;;;5119101;27;47001;-77
2022/08/15 08:22:57;;;;;;;;;12.33;12.33;;;;;;;;5119384;27;45332;-77
2022/08/15 08:25:27;;;;;;;;;12.00;10.33;;;;;;;;5119349;27;45394;-77
2022/08/15 08:28:02;;;;;;;;;14.00;11.67;;;;;;;;5119301;27;45552;-78
2022/08/15 08:30:55;;;;;;;;;16.00;15.00;;;;;;;;5118830;27;47469;-77
2022/08/15 08:33:38;;;;;;;;;13.00;11.00;;;;;;;;5055169;28;45508;-77
2022/08/15 08:36:06;;;;;;;;;12.67;10.00;;;;;;;;5055529;28;45400;-76
2022/08/15 08:39:04;;;;;;;;;15.00;14.67;;;;;;;;5055580;28;45323;-77
2022/08/15 08:41:35;;;;;;;;;17.67;13.00;;;;;;;;4995431;28;45497;-77
2022/08/15 08:44:27;;;;;;;;;12.67;12.67;;;;;;;;4995328;28;45339;-77
2022/08/15 08:46:55;;;;;;;;;18.00;14.33;;;;;;;;4993136;28;45442;-76
2022/08/15 08:49:20;;;;;;;;;14.00;14.00;;;;;;;;4979031;28;45244;-77
2022/08/15 08:51:45;;;;;;;;;18.00;15.00;;;;;;;;4995121;28;46586;-77
2022/08/15 08:54:23;;;;;;;;;14.00;14.00;;;;;;;;4995432;28;45505;-76
2022/08/15 08:56:50;;;;;;;;;15.33;13.00;;;;;;;;4995520;28;45439;-75
2022/08/15 08:59:19;;;;;;;;;17.00;17.00;;;;;;;;4995546;28;45433;-77
2022/08/15 09:01:45;;;;;;;;;18.33;17.00;;;;;;;;4995059;28;47001;-77
2022/08/15 09:04:16;;;;;;;;;16.00;13.67;;;;;;;;4995240;28;45440;-76
2022/08/15 09:06:43;;;;;;;;;14.67;14.67;;;;;;;;4995124;28;45457;-77
2022/08/15 09:09:08;;;;;;;;;18.33;15.67;;;;;;;;5000647;28;45569;-76
2022/08/15 09:11:38;;;;;;;;;17.00;13.67;;;;;;;;5054726;28;46558;-76
2022/08/15 09:14:22;;;;;;;;;14.33;13.00;;;;;;;;5054862;28;45376;-76
2022/08/15 09:16:48;;;;;;;;;13.00;11.67;;;;;;;;5078890;27;45367;-77
2022/08/15 09:19:26;;;;;;;;;14.00;11.33;;;;;;;;5118745;27;45363;-76
2022/08/15 09:21:51;;;;;;;;;15.67;14.67;;;;;;;;5118195;27;46464;-75
2022/08/15 09:24:19;;;;;;;;;15.33;13.67;;;;;;;;5118715;27;45505;-75
2022/08/15 09:26:56;;;;;;;;;16.00;16.00;;;;;;;;5121888;27;45398;-75
2022/08/15 09:29:25;;;;;;;;;12.33;11.33;;;;;;;;5121860;27;45506;-76
2022/08/15 09:32:09;;;;;;;;;18.67;18.33;;;;;;;;5121627;27;46181;-76
2022/08/15 09:34:35;;;;;;;;;17.00;15.00;;;;;;;;5121803;27;45323;-75
2022/08/15 09:37:18;;;;;;;;;19.33;16.33;;;;;;;;5121945;27;45318;-76
2022/08/15 09:39:49;;;;;;;;;19.33;13.67;;;;;;;;5122162;27;45389;-76
2022/08/15 09:42:30;;;;;;;;;13.67;12.00;;;;;;;;5121665;27;47198;-76
2022/08/15 09:45:23;;;;;;;;;14.67;13.00;;;;;;;;5121694;27;45457;-77
2022/08/15 09:47:48;;;;;;;;;12.67;12.67;;;;;;;;5121598;27;45312;-74
2022/08/15 09:50:32;;;;;;;;;16.00;13.33;;;;;;;;5122023;27;45380;-77
2022/08/15 09:53:06;;;;;;;;;15.00;15.00;;;;;;;;5121643;27;45596;-76
2022/08/15 09:55:44;;;;;;;;;12.33;12.33;;;;;;;;5121494;27;45251;-78
2022/08/15 09:58:20;;;;;;;;;12.33;11.33;;;;;;;;5121600;27;45496;-77
2022/08/15 10:01:06;;;;;;;;;18.00;14.33;;;;;;;;5121642;27;45497;-77
2022/08/15 10:03:55;;;;;;;;;16.00;15.00;;;;;;;;5121452;27;46352;-77
2022/08/15 10:06:23;;;;;;;;;12.00;12.00;;;;;;;;5112896;27;45154;-77
2022/08/15 10:08:55;;;;;;;;;15.00;14.00;;;;;;;;5121147;27;45405;-77
2022/08/15 10:11:30;;;;;;;;;16.00;13.67;;;;;;;;5121487;27;45449;-78
2022/08/15 10:14:06;;;;;;;;;13.33;13.00;;;;;;;;5121231;27;47266;-76
2022/08/15 10:16:39;;;;;;;;;16.00;13.33;;;;;;;;5121130;27;45342;-76
2022/08/15 10:19:04;;;;;;;;;14.67;12.00;;;;;;;;5121276;27;45309;-77
2022/08/15 10:21:40;;;;;;;;;16.33;15.00;;;;;;;;5121398;27;45273;-75
2022/08/15 10:24:07;;;;;;;;;11.33;11.33;;;;;;;;5121028;27;46041;-78
2022/08/15 10:26:37;;;;;;;;;16.00;13.33;;;;;;;;5120771;27;45420;-77
2022/08/15 10:29:02;;;;;;;;;16.00;14.67;;;;;;;;5120854;27;45409;-76
2022/08/15 10:31:30;;;;;;;;;13.00;12.67;;;;;;;;5121116;27;45447;-77
2022/08/15 10:34:00;;;;;;;;;14.00;13.00;;;;;;;;5120918;27;46158;-76
2022/08/15 10:36:28;;;;;;;;;13.33;11.33;;;;;;;;5120421;27;45488;-77
2022/08/15 10:39:05;;;;;;;;;14.00;14.00;;;;;;;;5121046;27;45334;-76
2022/08/15 10:41:37;;;;;;;;;11.33;11.33;;;;;;;;5121076;27;45305;-78
2022/08/15 10:44:02;;;;;;;;;12.00;12.00;;;;;;;;5120600;27;46234;-78
2022/08/15 10:46:28;;;;;;;;;9.67;8.33;;;;;;;;5120734;27;45419;-77
2022/08/15 10:49:02;;;;;;;;;14.00;11.67;;;;;;;;5120785;27;45418;-78
2022/08/15 10:51:34;;;;;;;;;18.67;15.67;;;;;;;;5120875;27;45487;-76
2022/08/15 10:54:09;;;;;;;;;12.67;11.33;;;;;;;;5120768;27;46378;-76
2022/08/15 10:56:37;;;;;;;;;10.00;10.00;;;;;;;;5120499;27;45496;-75
2022/08/15 10:59:08;;;;;;;;;15.00;14.33;;;;;;;;5120774;27;45307;-76
2022/08/15 11:01:35;;;;;;;;;13.33;11.00;;;;;;;;5120621;27;45629;-76
2022/08/15 11:04:05;;;;;;;;;9.67;8.33;;;;;;;;5120468;27;46203;-77
2022/08/15 11:06:37;;;;;;;;;6.67;6.67;;;;;;;;5120440;27;45179;-75
2022/08/15 11:09:08;;;;;;;;;11.33;10.00;;;;;;;;5120360;27;45476;-76
2022/08/15 11:11:39;;;;;;;;;10.33;9.67;;;;;;;;5120634;27;45437;-76
2022/08/15 11:14:09;;;;;;;;;12.00;11.00;;;;;;;;5120200;27;45268;-78
2022/08/15 11:16:54;;;;;;;;;12.00;11.00;;;;;;;;5120110;27;45392;-76
2022/08/15 11:19:28;;;;;;;;;17.33;9.67;;;;;;;;5119530;27;45390;-77
2022/08/15 11:21:58;;;;;;;;;7.00;7.00;;;;;;;;5120564;27;45394;-78
2022/08/15 11:24:25;;;;;;;;;9.33;8.33;;;;;;;;5120052;27;46723;-77
2022/08/15 11:26:50;;;;;;;;;9.33;9.33;;;;;;;;5119987;27;45235;-77
2022/08/15 11:29:15;;;;;;;;;12.33;11.00;;;;;;;;5120188;27;45428;-76
2022/08/15 11:31:43;;;;;;;;;7.00;6.00;;;;;;;;5120453;27;45286;-78
2022/08/15 11:34:17;;;;;;;;;12.00;11.00;;;;;;;;5120121;27;45272;-77
2022/08/15 11:36:43;;;;;;;;;10.67;9.67;;;;;;;;5119971;27;45371;-76
2022/08/15 11:39:13;;;;;;;;;10.67;9.33;;;;;;;;5120032;27;45346;-76
2022/08/15 11:41:40;;;;;;;;;10.67;10.00;;;;;;;;5120299;27;45315;-76
2022/08/15 11:44:06;;;;;;;;;11.33;9.33;;;;;;;;5119788;27;46368;-76
2022/08/15 11:46:32;;;;;;;;;11.00;11.00;;;;;;;;5119403;27;45204;-76
2022/08/15 11:49:12;;;;;;;;;15.33;11.67;;;;;;;;5119112;27;45377;-75
2022/08/15 11:51:42;;;;;;;;;9.67;9.67;;;;;;;;5120004;27;45321;-77
2022/08/15 11:54:10;;;;;;;;;11.33;11.33;;;;;;;;5119510;27;47035;-77
2022/08/15 11:56:50;;;;;;;;;15.33;14.00;;;;;;;;5119814;27;45454;-77
2022/08/15 11:59:34;;;;;;;;;14.67;13.00;;;;;;;;5119720;27;45385;-76
2022/08/15 12:02:11;;;;;;;;;18.00;15.33;;;;;;;;5119713;27;45235;-77
2022/08/15 12:04:42;;;;;;;;;13.67;13.33;;;;;;;;5119352;27;46630;-78
2022/08/15 12:07:10;;;;;;;;;17.33;11.67;;;;;;;;5119375;27;45498;-76
2022/08/15 12:09:35;;;;;;;;;15.00;12.33;;;;;;;;5119533;27;45378;-79
2022/08/15 12:12:01;;;;;;;;;10.67;10.67;;;;;;;;5119733;27;45426;-77
2022/08/15 12:14:28;;;;;;;;;18.67;15.33;;;;;;;;5100583;27;46527;-77
2022/08/15 12:16:55;;;;;;;;;14.00;12.33;;;;;;;;5119316;27;45428;-75
2022/08/15 12:19:24;;;;;;;;;13.00;13.00;;;;;;;;5119611;27;45459;-77
2022/08/15 12:21:50;;;;;;;;;11.67;11.67;;;;;;;;5119436;27;45307;-76
2022/08/15 12:24:23;;;;;;;;;11.67;11.67;;;;;;;;5119112;27;45181;-76
2022/08/15 12:26:50;;;;;;;;;10.67;10.33;;;;;;;;5119081;27;45278;-76
2022/08/15 12:29:16;;;;;;;;;11.33;10.00;;;;;;;;5119403;27;45366;-76
2022/08/15 12:31:41;;;;;;;;;12.00;11.67;;;;;;;;5119218;27;45430;-75
2022/08/15 12:34:15;;;;;;;;;11.00;9.33;;;;;;;;5118846;27;46612;-77
2022/08/15 12:36:43;;;;;;;;;9.33;9.33;;;;;;;;5119149;27;45254;-77
2022/08/15 12:39:10;;;;;;;;;9.33;9.33;;;;;;;;5119013;27;45420;-76
2022/08/15 12:41:36;;;;;;;;;9.00;9.00;;;;;;;;5119166;27;45323;-76
2022/08/15 12:44:05;;;;;;;;;11.33;9.33;;;;;;;;5118862;27;45298;-74
2022/08/15 12:46:31;;;;;;;;;11.33;11.33;;;;;;;;5118290;27;45989;-77
2022/08/15 12:48:56;;;;;;;;;10.00;10.00;;;;;;;;5118934;27;45333;-77
2022/08/15 12:51:21;;;;;;;;;9.33;9.33;;;;;;;;5119260;27;45215;-77
2022/08/15 12:53:46;;;;;;;;;11.33;9.67;;;;;;;;5118810;27;45645;-78
2022/08/15 12:56:13;;;;;;;;;13.00;12.00;;;;;;;;5119014;27;45340;-77
2022/08/15 12:58:39;;;;;;;;;11.00;10.00;;;;;;;;5118729;27;45454;-76
2022/08/15 13:01:07;;;;;;;;;10.67;10.67;;;;;;;;5118941;27;45349;-76
2022/08/15 13:03:33;;;;;;;;;12.67;11.00;;;;;;;;5118838;27;46500;-78
2022/08/15 13:06:07;;;;;;;;;9.33;9.33;;;;;;;;5118591;27;45364;-77
2022/08/15 13:08:32;;;;;;;;;12.33;10.33;;;;;;;;5118580;27;45817;-76
2022/08/15 13:10:58;;;;;;;;;12.67;10.00;;;;;;;;5100330;27;45573;-76
2022/08/15 13:13:23;;;;;;;;;13.00;11.33;;;;;;;;5118373;27;46529;-77
2022/08/15 13:15:48;;;;;;;;;10.33;10.33;;;;;;;;5118874;27;45228;-78
2022/08/15 13:18:23;;;;;;;;;10.67;10.67;;;;;;;;5118899;27;45382;-76
2022/08/15 13:23:40;;;;;;;;;12.33;11.33;;;;;;;;5118204;27;45779;-76
2022/08/15 13:26:08;;;;;;;;;12.33;10.00;;;;;;;;5118170;27;45343;-78
2022/08/15 13:28:34;;;;;;;;;11.00;11.00;;;;;;;;5118496;27;45451;-77
2022/08/15 13:30:59;;;;;;;;;12.67;12.67;;;;;;;;5118511;27;45230;-76
2022/08/15 13:33:25;;;;;;;;;12.00;12.00;;;;;;;;5118177;27;46808;-76
2022/08/15 13:35:50;;;;;;;;;11.33;11.00;;;;;;;;5118451;27;45310;-77
2022/08/15 13:38:15;;;;;;;;;11.00;11.00;;;;;;;;5100004;27;45380;-75
2022/08/15 13:40:40;;;;;;;;;11.33;10.33;;;;;;;;5118596;27;45391;-75
2022/08/15 13:43:06;;;;;;;;;10.33;10.33;;;;;;;;5118301;27;45256;-78
2022/08/15 13:45:32;;;;;;;;;8.67;8.67;;;;;;;;5118069;27;45423;-75
2022/08/15 13:47:57;;;;;;;;;11.00;10.00;;;;;;;;5118272;27;45223;-76
2022/08/15 13:50:24;;;;;;;;;10.00;10.00;;;;;;;;5118447;27;45180;-78
2022/08/15 13:52:50;;;;;;;;;11.67;11.67;;;;;;;;5118022;27;47185;-77
2022/08/15 13:55:15;;;;;;;;;12.33;10.00;;;;;;;;5117941;27;45659;-75
2022/08/15 13:57:42;;;;;;;;;21.00;21.00;;;;;;;;5118399;27;45298;-76
2022/08/15 14:00:10;;;;;;;;;11.33;10.33;;;;;;;;5118090;27;45494;-76
2022/08/15 14:02:37;;;;;;;;;12.00;12.00;;;;;;;;5117592;27;47281;-74
2022/08/15 14:05:03;;;;;;;;;12.33;11.67;;;;;;;;5117776;27;45362;-77
2022/08/15 14:07:29;;;;;;;;;11.00;10.33;;;;;;;;5117893;27;45220;-78
2022/08/15 14:09:54;;;;;;;;;11.00;11.00;;;;;;;;5118086;27;45401;-77
2022/08/15 14:12:19;;;;;;;;;8.00;8.00;;;;;;;;5121144;27;46222;-77
2022/08/15 14:14:45;;;;;;;;;11.00;10.67;;;;;;;;5121294;27;45334;-78
2022/08/15 14:17:11;;;;;;;;;8.67;7.67;;;;;;;;5121493;27;45532;-78
2022/08/15 14:19:38;;;;;;;;;12.33;11.00;;;;;;;;5121635;27;45433;-78
2022/08/15 14:22:05;;;;;;;;;9.00;8.67;;;;;;;;5120882;27;46712;-76
2022/08/15 14:24:31;;;;;;;;;8.00;8.00;;;;;;;;5121026;27;45323;-76
2022/08/15 14:26:57;;;;;;;;;10.00;8.67;;;;;;;;5121207;27;45259;-78
2022/08/15 14:29:26;;;;;;;;;7.00;7.00;;;;;;;;5121244;27;45429;-77
2022/08/15 14:31:51;;;;;;;;;8.67;7.33;;;;;;;;5120833;27;47269;-77
2022/08/15 14:34:17;;;;;;;;;8.67;7.67;;;;;;;;5121031;27;45415;-78
2022/08/15 14:36:42;;;;;;;;;9.00;9.00;;;;;;;;5121261;27;45278;-78
2022/08/15 14:39:08;;;;;;;;;9.33;9.00;;;;;;;;5121271;27;45472;-78
2022/08/15 14:41:33;;;;;;;;;8.33;8.00;;;;;;;;5120875;27;45477;-77
2022/08/15 14:43:59;;;;;;;;;7.00;7.00;;;;;;;;5121042;27;45432;-79